aviador You're here:

CYFS Decoded Metar

FORT SIMPSON in NT, CANADA
Report Time2018-01-19 11:00:00
UTC Time2018-01-19 11:26:53
Flight Rules ifr IFR
Wind310° at 04 kt
W.Decomp.*RWY 32: 3.4 kt HW 2.1 kt LCW
W.Rank310° ranks 8
Current wind is below 310° avg. (6.6)
Visibility9999 m
Phenomena:Light Snow
Clouds:Overcast 006 Hf
Expected CloudBase > 400 ft AGL from Temp-Dew spread
Ceiling600 ft
Temp-10°C (ISA -24)
Dew Point-11°C (92% RH)
AAT-14.6°C
QNH999 hPa
Density Alt-1,906 ft
Elevation554 ft
Report Wrong Elevation
Raw Report
CYFS 191100Z 31004KT 15SM -SN OVC006 M10/M11 A2951 RMK ST8
SLP009=

Extra information for CYFS:More info

Metar Taf Metar & Taf Last 4 Metars F.Rules Stats Wind Profile Meteogram Temp Stats Airport Information Weather charts Add Link Nearby VenuesMetar ALERT Operation Metar Decoded Social comments